sensor_id;sensor_type;location;lat;lon;timestamp;temperature;humidity
55693;DHT22;41590;53.366;5.212;2022-10-16T00:01:21;14.10;99.90
55693;DHT22;41590;53.366;5.212;2022-10-16T00:03:49;14.10;99.90
55693;DHT22;41590;53.366;5.212;2022-10-16T00:06:17;14.10;99.90
55693;DHT22;41590;53.366;5.212;2022-10-16T00:08:44;14.10;99.90
55693;DHT22;41590;53.366;5.212;2022-10-16T00:11:17;14.20;99.90
55693;DHT22;41590;53.366;5.212;2022-10-16T00:13:47;14.10;99.90
55693;DHT22;41590;53.366;5.212;2022-10-16T00:16:15;14.20;99.90
55693;DHT22;41590;53.366;5.212;2022-10-16T00:18:43;14.30;99.90
55693;DHT22;41590;53.366;5.212;2022-10-16T00:21:16;14.30;99.90
55693;DHT22;41590;53.366;5.212;2022-10-16T00:23:43;14.40;99.90
55693;DHT22;41590;53.366;5.212;2022-10-16T00:26:12;14.20;99.90
55693;DHT22;41590;53.366;5.212;2022-10-16T00:28:41;14.10;99.90
55693;DHT22;41590;53.366;5.212;2022-10-16T00:31:09;14.30;99.90
55693;DHT22;41590;53.366;5.212;2022-10-16T00:33:37;14.10;99.90
55693;DHT22;41590;53.366;5.212;2022-10-16T00:36:04;14.20;99.90
55693;DHT22;41590;53.366;5.212;2022-10-16T00:38:31;14.00;99.90
55693;DHT22;41590;53.366;5.212;2022-10-16T00:40:58;14.20;99.90
55693;DHT22;41590;53.366;5.212;2022-10-16T00:46:39;14.10;99.90
55693;DHT22;41590;53.366;5.212;2022-10-16T00:49:10;14.10;99.90
55693;DHT22;41590;53.366;5.212;2022-10-16T00:51:46;14.30;99.90
55693;DHT22;41590;53.366;5.212;2022-10-16T00:54:31;14.00;99.90
55693;DHT22;41590;53.366;5.212;2022-10-16T00:57:12;14.10;99.90
55693;DHT22;41590;53.366;5.212;2022-10-16T00:59:41;14.40;99.90
55693;DHT22;41590;53.366;5.212;2022-10-16T01:02:12;14.20;99.90
55693;DHT22;41590;53.366;5.212;2022-10-16T01:04:43;14.00;99.90
55693;DHT22;41590;53.366;5.212;2022-10-16T01:15:42;14.00;99.90
55693;DHT22;41590;53.366;5.212;2022-10-16T01:21:24;14.00;99.90
55693;DHT22;41590;53.366;5.212;2022-10-16T01:26:35;13.80;99.90
55693;DHT22;41590;53.366;5.212;2022-10-16T01:29:33;14.10;99.90
55693;DHT22;41590;53.366;5.212;2022-10-16T01:32:22;14.30;99.90
55693;DHT22;41590;53.366;5.212;2022-10-16T01:34:54;13.90;99.90
55693;DHT22;41590;53.366;5.212;2022-10-16T01:37:42;14.20;99.90
55693;DHT22;41590;53.366;5.212;2022-10-16T01:40:13;14.10;99.90
55693;DHT22;41590;53.366;5.212;2022-10-16T01:42:44;14.10;99.90
55693;DHT22;41590;53.366;5.212;2022-10-16T01:45:14;13.90;99.90
55693;DHT22;41590;53.366;5.212;2022-10-16T01:47:43;13.90;99.90
55693;DHT22;41590;53.366;5.212;2022-10-16T01:50:10;14.00;99.90
55693;DHT22;41590;53.366;5.212;2022-10-16T01:52:41;13.90;99.90
55693;DHT22;41590;53.366;5.212;2022-10-16T01:55:22;13.90;99.90
55693;DHT22;41590;53.366;5.212;2022-10-16T01:57:51;14.00;99.90
55693;DHT22;41590;53.366;5.212;2022-10-16T02:00:21;14.00;99.90
55693;DHT22;41590;53.366;5.212;2022-10-16T02:02:50;14.10;99.90
55693;DHT22;41590;53.366;5.212;2022-10-16T02:05:30;14.10;99.90
55693;DHT22;41590;53.366;5.212;2022-10-16T02:07:58;14.00;99.90
55693;DHT22;41590;53.366;5.212;2022-10-16T02:10:24;14.00;99.90
55693;DHT22;41590;53.366;5.212;2022-10-16T02:12:59;14.00;99.90
55693;DHT22;41590;53.366;5.212;2022-10-16T02:15:26;13.90;99.90
55693;DHT22;41590;53.366;5.212;2022-10-16T02:17:53;14.10;99.90
55693;DHT22;41590;53.366;5.212;2022-10-16T02:20:25;14.00;99.90
55693;DHT22;41590;53.366;5.212;2022-10-16T02:22:54;13.80;99.90
55693;DHT22;41590;53.366;5.212;2022-10-16T02:25:32;13.80;99.90
55693;DHT22;41590;53.366;5.212;2022-10-16T02:28:27;13.70;99.90
55693;DHT22;41590;53.366;5.212;2022-10-16T02:31:01;13.60;99.90
55693;DHT22;41590;53.366;5.212;2022-10-16T02:33:30;13.50;99.90
55693;DHT22;41590;53.366;5.212;2022-10-16T02:35:57;13.80;99.90
55693;DHT22;41590;53.366;5.212;2022-10-16T02:38:25;13.70;99.90
55693;DHT22;41590;53.366;5.212;2022-10-16T02:40:51;13.50;99.90
55693;DHT22;41590;53.366;5.212;2022-10-16T02:43:21;13.50;99.90
55693;DHT22;41590;53.366;5.212;2022-10-16T02:45:49;13.50;99.90
55693;DHT22;41590;53.366;5.212;2022-10-16T02:48:15;13.40;99.90
55693;DHT22;41590;53.366;5.212;2022-10-16T02:50:41;13.50;99.90
55693;DHT22;41590;53.366;5.212;2022-10-16T02:53:07;13.30;99.90
55693;DHT22;41590;53.366;5.212;2022-10-16T02:55:36;13.00;99.90
55693;DHT22;41590;53.366;5.212;2022-10-16T02:58:02;13.10;99.90
55693;DHT22;41590;53.366;5.212;2022-10-16T03:00:29;13.50;99.90
55693;DHT22;41590;53.366;5.212;2022-10-16T03:02:56;13.10;99.90
55693;DHT22;41590;53.366;5.212;2022-10-16T03:05:22;13.10;99.90
55693;DHT22;41590;53.366;5.212;2022-10-16T03:07:47;13.20;99.90
55693;DHT22;41590;53.366;5.212;2022-10-16T03:10:13;13.10;99.90
55693;DHT22;41590;53.366;5.212;2022-10-16T03:12:40;13.00;99.90
55693;DHT22;41590;53.366;5.212;2022-10-16T03:15:06;13.20;99.90
55693;DHT22;41590;53.366;5.212;2022-10-16T03:17:33;13.40;99.90
55693;DHT22;41590;53.366;5.212;2022-10-16T03:20:00;13.30;99.90
55693;DHT22;41590;53.366;5.212;2022-10-16T03:22:27;13.10;99.90
55693;DHT22;41590;53.366;5.212;2022-10-16T03:24:52;13.20;99.90
55693;DHT22;41590;53.366;5.212;2022-10-16T03:27:18;13.10;99.90
55693;DHT22;41590;53.366;5.212;2022-10-16T03:29:46;13.40;99.90
55693;DHT22;41590;53.366;5.212;2022-10-16T03:32:13;13.00;99.90
55693;DHT22;41590;53.366;5.212;2022-10-16T03:34:40;13.10;99.90
55693;DHT22;41590;53.366;5.212;2022-10-16T03:37:06;13.30;99.90
55693;DHT22;41590;53.366;5.212;2022-10-16T03:39:32;12.90;99.90
55693;DHT22;41590;53.366;5.212;2022-10-16T03:41:58;13.20;99.90
55693;DHT22;41590;53.366;5.212;2022-10-16T03:44:23;12.70;99.90
55693;DHT22;41590;53.366;5.212;2022-10-16T03:46:49;12.70;99.90
55693;DHT22;41590;53.366;5.212;2022-10-16T03:49:15;12.60;99.90
55693;DHT22;41590;53.366;5.212;2022-10-16T03:51:41;12.60;99.90
55693;DHT22;41590;53.366;5.212;2022-10-16T03:54:06;12.70;99.90
55693;DHT22;41590;53.366;5.212;2022-10-16T03:56:32;12.80;99.90
55693;DHT22;41590;53.366;5.212;2022-10-16T03:58:59;12.70;99.90
55693;DHT22;41590;53.366;5.212;2022-10-16T04:01:25;12.70;99.90
55693;DHT22;41590;53.366;5.212;2022-10-16T04:03:50;12.90;99.90
55693;DHT22;41590;53.366;5.212;2022-10-16T04:06:16;13.00;99.90
55693;DHT22;41590;53.366;5.212;2022-10-16T04:08:43;12.80;99.90
55693;DHT22;41590;53.366;5.212;2022-10-16T04:11:09;12.80;99.90
55693;DHT22;41590;53.366;5.212;2022-10-16T04:13:37;12.90;99.90
55693;DHT22;41590;53.366;5.212;2022-10-16T04:16:02;13.00;99.90
55693;DHT22;41590;53.366;5.212;2022-10-16T04:18:28;12.90;99.90
55693;DHT22;41590;53.366;5.212;2022-10-16T04:20:54;12.90;99.90
55693;DHT22;41590;53.366;5.212;2022-10-16T04:23:20;13.10;99.90
55693;DHT22;41590;53.366;5.212;2022-10-16T04:25:46;12.90;99.90
55693;DHT22;41590;53.366;5.212;2022-10-16T04:28:14;13.00;99.90
55693;DHT22;41590;53.366;5.212;2022-10-16T04:30:39;13.20;99.90
55693;DHT22;41590;53.366;5.212;2022-10-16T04:33:05;13.20;99.90
55693;DHT22;41590;53.366;5.212;2022-10-16T04:35:32;13.30;99.90
55693;DHT22;41590;53.366;5.212;2022-10-16T04:37:58;13.00;99.90
55693;DHT22;41590;53.366;5.212;2022-10-16T04:40:25;13.20;99.90
55693;DHT22;41590;53.366;5.212;2022-10-16T04:42:51;13.10;99.90
55693;DHT22;41590;53.366;5.212;2022-10-16T04:45:18;13.00;99.90
55693;DHT22;41590;53.366;5.212;2022-10-16T04:47:44;13.20;99.90
55693;DHT22;41590;53.366;5.212;2022-10-16T04:50:10;13.30;99.90
55693;DHT22;41590;53.366;5.212;2022-10-16T04:52:38;13.20;99.90
55693;DHT22;41590;53.366;5.212;2022-10-16T04:55:04;13.30;99.90
55693;DHT22;41590;53.366;5.212;2022-10-16T04:57:31;13.40;99.90
55693;DHT22;41590;53.366;5.212;2022-10-16T04:59:59;13.40;99.90
55693;DHT22;41590;53.366;5.212;2022-10-16T05:02:24;13.50;99.90
55693;DHT22;41590;53.366;5.212;2022-10-16T05:04:52;13.40;99.90
55693;DHT22;41590;53.366;5.212;2022-10-16T05:07:18;13.40;99.90
55693;DHT22;41590;53.366;5.212;2022-10-16T05:09:43;13.70;99.90
55693;DHT22;41590;53.366;5.212;2022-10-16T05:12:09;13.70;99.90
55693;DHT22;41590;53.366;5.212;2022-10-16T05:14:35;13.40;99.90
55693;DHT22;41590;53.366;5.212;2022-10-16T05:17:01;13.30;99.90
55693;DHT22;41590;53.366;5.212;2022-10-16T05:19:27;13.60;99.90
55693;DHT22;41590;53.366;5.212;2022-10-16T05:21:53;13.60;99.90
55693;DHT22;41590;53.366;5.212;2022-10-16T05:24:19;13.30;99.90
55693;DHT22;41590;53.366;5.212;2022-10-16T05:26:46;13.20;99.90
55693;DHT22;41590;53.366;5.212;2022-10-16T05:29:11;13.50;99.90
55693;DHT22;41590;53.366;5.212;2022-10-16T05:31:37;13.10;99.90
55693;DHT22;41590;53.366;5.212;2022-10-16T05:34:03;13.20;99.90
55693;DHT22;41590;53.366;5.212;2022-10-16T05:36:30;13.10;99.90
55693;DHT22;41590;53.366;5.212;2022-10-16T05:38:58;13.20;99.90
55693;DHT22;41590;53.366;5.212;2022-10-16T05:41:24;13.10;99.90
55693;DHT22;41590;53.366;5.212;2022-10-16T05:43:53;13.20;99.90
55693;DHT22;41590;53.366;5.212;2022-10-16T05:46:19;13.30;99.90
55693;DHT22;41590;53.366;5.212;2022-10-16T05:48:51;13.40;99.90
55693;DHT22;41590;53.366;5.212;2022-10-16T05:51:20;13.40;99.90
55693;DHT22;41590;53.366;5.212;2022-10-16T05:53:47;13.40;99.90
55693;DHT22;41590;53.366;5.212;2022-10-16T05:56:13;13.40;99.90
55693;DHT22;41590;53.366;5.212;2022-10-16T05:58:39;13.30;99.90
55693;DHT22;41590;53.366;5.212;2022-10-16T06:01:16;13.30;99.90
55693;DHT22;41590;53.366;5.212;2022-10-16T06:03:42;13.30;99.90
55693;DHT22;41590;53.366;5.212;2022-10-16T06:08:40;13.20;99.90
55693;DHT22;41590;53.366;5.212;2022-10-16T06:11:09;13.30;99.90
55693;DHT22;41590;53.366;5.212;2022-10-16T06:13:36;13.20;99.90
55693;DHT22;41590;53.366;5.212;2022-10-16T06:16:03;13.20;99.90
55693;DHT22;41590;53.366;5.212;2022-10-16T06:18:30;13.20;99.90
55693;DHT22;41590;53.366;5.212;2022-10-16T06:20:57;13.30;99.90
55693;DHT22;41590;53.366;5.212;2022-10-16T06:23:23;13.30;99.90
55693;DHT22;41590;53.366;5.212;2022-10-16T06:25:51;13.20;99.90
55693;DHT22;41590;53.366;5.212;2022-10-16T06:28:22;13.20;99.90
55693;DHT22;41590;53.366;5.212;2022-10-16T06:30:49;13.20;99.90
55693;DHT22;41590;53.366;5.212;2022-10-16T06:33:24;13.20;99.90
55693;DHT22;41590;53.366;5.212;2022-10-16T06:35:51;13.20;99.90
55693;DHT22;41590;53.366;5.212;2022-10-16T06:38:17;13.40;99.90
55693;DHT22;41590;53.366;5.212;2022-10-16T06:40:47;13.50;99.90
55693;DHT22;41590;53.366;5.212;2022-10-16T06:43:14;13.50;99.90
55693;DHT22;41590;53.366;5.212;2022-10-16T06:45:40;13.50;99.90
55693;DHT22;41590;53.366;5.212;2022-10-16T06:48:08;13.60;99.90
55693;DHT22;41590;53.366;5.212;2022-10-16T06:50:34;13.70;99.90
55693;DHT22;41590;53.366;5.212;2022-10-16T06:53:01;13.70;99.90
55693;DHT22;41590;53.366;5.212;2022-10-16T06:55:26;13.70;99.90
55693;DHT22;41590;53.366;5.212;2022-10-16T06:57:52;13.80;99.90
55693;DHT22;41590;53.366;5.212;2022-10-16T07:00:21;13.90;99.90
55693;DHT22;41590;53.366;5.212;2022-10-16T07:02:46;13.90;99.90
55693;DHT22;41590;53.366;5.212;2022-10-16T07:05:12;13.90;99.90
55693;DHT22;41590;53.366;5.212;2022-10-16T07:07:39;13.90;99.90
55693;DHT22;41590;53.366;5.212;2022-10-16T07:10:06;13.90;99.90
55693;DHT22;41590;53.366;5.212;2022-10-16T07:12:31;13.90;99.90
55693;DHT22;41590;53.366;5.212;2022-10-16T07:14:57;13.90;99.90
55693;DHT22;41590;53.366;5.212;2022-10-16T07:17:23;13.90;99.90
55693;DHT22;41590;53.366;5.212;2022-10-16T07:19:52;14.00;99.90
55693;DHT22;41590;53.366;5.212;2022-10-16T07:22:18;14.00;99.90
55693;DHT22;41590;53.366;5.212;2022-10-16T07:24:45;14.00;99.90
55693;DHT22;41590;53.366;5.212;2022-10-16T07:27:12;14.00;99.90
55693;DHT22;41590;53.366;5.212;2022-10-16T07:29:39;14.10;99.90
55693;DHT22;41590;53.366;5.212;2022-10-16T07:32:05;14.10;99.90
55693;DHT22;41590;53.366;5.212;2022-10-16T07:34:30;14.20;99.90
55693;DHT22;41590;53.366;5.212;2022-10-16T07:36:56;14.10;99.90
55693;DHT22;41590;53.366;5.212;2022-10-16T07:39:22;14.20;99.90
55693;DHT22;41590;53.366;5.212;2022-10-16T07:41:47;14.20;99.90
55693;DHT22;41590;53.366;5.212;2022-10-16T07:44:15;14.20;99.90
55693;DHT22;41590;53.366;5.212;2022-10-16T07:46:40;14.40;99.90
55693;DHT22;41590;53.366;5.212;2022-10-16T07:49:08;14.40;99.90
55693;DHT22;41590;53.366;5.212;2022-10-16T07:51:34;14.70;99.90
55693;DHT22;41590;53.366;5.212;2022-10-16T07:54:08;14.80;99.90
55693;DHT22;41590;53.366;5.212;2022-10-16T07:56:55;14.90;99.90
55693;DHT22;41590;53.366;5.212;2022-10-16T07:59:21;14.90;99.90
55693;DHT22;41590;53.366;5.212;2022-10-16T08:02:11;14.80;99.90
55693;DHT22;41590;53.366;5.212;2022-10-16T08:04:46;14.80;99.90
55693;DHT22;41590;53.366;5.212;2022-10-16T08:07:15;14.80;99.90
55693;DHT22;41590;53.366;5.212;2022-10-16T08:09:43;14.80;99.90
55693;DHT22;41590;53.366;5.212;2022-10-16T08:12:09;14.80;99.90
55693;DHT22;41590;53.366;5.212;2022-10-16T08:14:36;14.70;99.90
55693;DHT22;41590;53.366;5.212;2022-10-16T08:17:03;14.70;99.90
55693;DHT22;41590;53.366;5.212;2022-10-16T08:19:29;14.70;99.90
55693;DHT22;41590;53.366;5.212;2022-10-16T08:21:58;14.70;99.90
55693;DHT22;41590;53.366;5.212;2022-10-16T08:24:23;14.90;99.90
55693;DHT22;41590;53.366;5.212;2022-10-16T08:26:50;14.90;99.90
55693;DHT22;41590;53.366;5.212;2022-10-16T08:29:18;15.00;99.90
55693;DHT22;41590;53.366;5.212;2022-10-16T08:31:44;15.00;99.90
55693;DHT22;41590;53.366;5.212;2022-10-16T08:34:11;15.10;99.90
55693;DHT22;41590;53.366;5.212;2022-10-16T08:36:37;15.20;99.90
55693;DHT22;41590;53.366;5.212;2022-10-16T08:39:03;15.20;99.90
55693;DHT22;41590;53.366;5.212;2022-10-16T08:49:15;15.50;99.90
55693;DHT22;41590;53.366;5.212;2022-10-16T08:51:41;15.60;99.90
55693;DHT22;41590;53.366;5.212;2022-10-16T08:54:28;15.50;99.90
55693;DHT22;41590;53.366;5.212;2022-10-16T08:56:56;15.60;99.90
55693;DHT22;41590;53.366;5.212;2022-10-16T08:59:23;15.60;99.90
55693;DHT22;41590;53.366;5.212;2022-10-16T09:01:52;15.60;99.90
55693;DHT22;41590;53.366;5.212;2022-10-16T09:04:46;15.70;99.90
55693;DHT22;41590;53.366;5.212;2022-10-16T09:21:26;16.00;99.90
55693;DHT22;41590;53.366;5.212;2022-10-16T09:26:24;16.00;99.90
55693;DHT22;41590;53.366;5.212;2022-10-16T09:28:52;16.10;99.90
55693;DHT22;41590;53.366;5.212;2022-10-16T09:31:23;16.20;99.90
55693;DHT22;41590;53.366;5.212;2022-10-16T09:33:53;16.20;99.90
55693;DHT22;41590;53.366;5.212;2022-10-16T09:36:25;16.30;99.90
55693;DHT22;41590;53.366;5.212;2022-10-16T09:41:29;16.40;99.90
55693;DHT22;41590;53.366;5.212;2022-10-16T09:43:57;16.50;99.90
55693;DHT22;41590;53.366;5.212;2022-10-16T09:46:32;16.60;99.90
55693;DHT22;41590;53.366;5.212;2022-10-16T09:51:49;16.60;99.90
55693;DHT22;41590;53.366;5.212;2022-10-16T09:54:21;16.60;99.90
55693;DHT22;41590;53.366;5.212;2022-10-16T09:56:48;16.50;99.90
55693;DHT22;41590;53.366;5.212;2022-10-16T09:59:22;16.60;99.90
55693;DHT22;41590;53.366;5.212;2022-10-16T10:01:54;16.60;99.90
55693;DHT22;41590;53.366;5.212;2022-10-16T10:04:22;16.70;99.90
55693;DHT22;41590;53.366;5.212;2022-10-16T10:06:55;16.60;99.90
55693;DHT22;41590;53.366;5.212;2022-10-16T10:09:29;16.60;99.90
55693;DHT22;41590;53.366;5.212;2022-10-16T10:12:01;16.40;99.90
55693;DHT22;41590;53.366;5.212;2022-10-16T10:14:47;16.40;99.90
55693;DHT22;41590;53.366;5.212;2022-10-16T10:17:21;16.40;99.90
55693;DHT22;41590;53.366;5.212;2022-10-16T10:19:57;16.30;99.90
55693;DHT22;41590;53.366;5.212;2022-10-16T10:31:10;16.40;99.90
55693;DHT22;41590;53.366;5.212;2022-10-16T10:36:35;16.30;99.90
55693;DHT22;41590;53.366;5.212;2022-10-16T11:02:26;16.60;99.90
55693;DHT22;41590;53.366;5.212;2022-10-16T11:08:03;16.70;99.90
55693;DHT22;41590;53.366;5.212;2022-10-16T11:10:40;16.60;99.90
55693;DHT22;41590;53.366;5.212;2022-10-16T11:15:48;16.60;99.90
55693;DHT22;41590;53.366;5.212;2022-10-16T11:18:21;16.60;99.90
55693;DHT22;41590;53.366;5.212;2022-10-16T11:20:56;16.50;99.90
55693;DHT22;41590;53.366;5.212;2022-10-16T11:23:27;16.60;99.90
55693;DHT22;41590;53.366;5.212;2022-10-16T11:25:59;16.60;99.90
55693;DHT22;41590;53.366;5.212;2022-10-16T11:28:32;16.60;99.90
55693;DHT22;41590;53.366;5.212;2022-10-16T11:31:13;16.50;99.90
55693;DHT22;41590;53.366;5.212;2022-10-16T11:33:55;16.50;99.90
55693;DHT22;41590;53.366;5.212;2022-10-16T11:36:38;16.50;99.90
55693;DHT22;41590;53.366;5.212;2022-10-16T11:39:27;16.40;99.90
55693;DHT22;41590;53.366;5.212;2022-10-16T11:45:11;16.50;99.90
55693;DHT22;41590;53.366;5.212;2022-10-16T11:47:48;16.60;99.90
55693;DHT22;41590;53.366;5.212;2022-10-16T11:55:34;16.70;99.90
55693;DHT22;41590;53.366;5.212;2022-10-16T12:01:19;16.60;99.90
55693;DHT22;41590;53.366;5.212;2022-10-16T12:09:36;16.60;99.90
55693;DHT22;41590;53.366;5.212;2022-10-16T12:12:01;16.60;99.90
55693;DHT22;41590;53.366;5.212;2022-10-16T12:17:37;16.50;99.90
55693;DHT22;41590;53.366;5.212;2022-10-16T12:22:51;16.40;99.90
55693;DHT22;41590;53.366;5.212;2022-10-16T12:25:39;16.40;99.90
55693;DHT22;41590;53.366;5.212;2022-10-16T12:30:41;16.40;99.90
55693;DHT22;41590;53.366;5.212;2022-10-16T12:33:28;16.40;99.90
55693;DHT22;41590;53.366;5.212;2022-10-16T12:36:00;16.50;99.90
55693;DHT22;41590;53.366;5.212;2022-10-16T12:38:29;16.50;99.90
55693;DHT22;41590;53.366;5.212;2022-10-16T12:41:06;16.50;99.90
55693;DHT22;41590;53.366;5.212;2022-10-16T12:43:46;16.50;99.90
55693;DHT22;41590;53.366;5.212;2022-10-16T12:48:42;16.50;99.90
55693;DHT22;41590;53.366;5.212;2022-10-16T13:19:25;16.40;99.90
55693;DHT22;41590;53.366;5.212;2022-10-16T13:24:38;16.30;99.90
55693;DHT22;41590;53.366;5.212;2022-10-16T13:29:41;16.30;99.90
55693;DHT22;41590;53.366;5.212;2022-10-16T13:32:10;16.30;99.90
55693;DHT22;41590;53.366;5.212;2022-10-16T13:34:46;16.30;99.90
55693;DHT22;41590;53.366;5.212;2022-10-16T13:37:22;16.40;99.90
55693;DHT22;41590;53.366;5.212;2022-10-16T13:39:50;16.40;99.90
55693;DHT22;41590;53.366;5.212;2022-10-16T13:42:26;16.40;99.90
55693;DHT22;41590;53.366;5.212;2022-10-16T13:44:55;16.40;99.90
55693;DHT22;41590;53.366;5.212;2022-10-16T13:47:26;16.30;99.90
55693;DHT22;41590;53.366;5.212;2022-10-16T13:50:15;16.30;99.90
55693;DHT22;41590;53.366;5.212;2022-10-16T13:52:43;16.30;99.90
55693;DHT22;41590;53.366;5.212;2022-10-16T13:55:17;16.30;99.90
55693;DHT22;41590;53.366;5.212;2022-10-16T13:57:44;16.20;99.90
55693;DHT22;41590;53.366;5.212;2022-10-16T14:00:25;16.20;99.90
55693;DHT22;41590;53.366;5.212;2022-10-16T14:03:11;16.20;99.90
55693;DHT22;41590;53.366;5.212;2022-10-16T14:05:49;16.10;99.90
55693;DHT22;41590;53.366;5.212;2022-10-16T14:08:15;16.20;99.90
55693;DHT22;41590;53.366;5.212;2022-10-16T14:10:42;16.10;99.90
55693;DHT22;41590;53.366;5.212;2022-10-16T14:13:16;16.10;99.90
55693;DHT22;41590;53.366;5.212;2022-10-16T14:15:47;16.10;99.90
55693;DHT22;41590;53.366;5.212;2022-10-16T14:18:19;16.00;99.90
55693;DHT22;41590;53.366;5.212;2022-10-16T14:20:49;16.00;99.90
55693;DHT22;41590;53.366;5.212;2022-10-16T14:23:33;15.90;99.90
55693;DHT22;41590;53.366;5.212;2022-10-16T14:28:37;15.80;99.90
55693;DHT22;41590;53.366;5.212;2022-10-16T14:31:29;15.70;99.90
55693;DHT22;41590;53.366;5.212;2022-10-16T14:33:59;15.70;99.90
55693;DHT22;41590;53.366;5.212;2022-10-16T14:36:28;15.70;99.90
55693;DHT22;41590;53.366;5.212;2022-10-16T14:39:06;15.60;99.90
55693;DHT22;41590;53.366;5.212;2022-10-16T14:41:46;15.60;99.90
55693;DHT22;41590;53.366;5.212;2022-10-16T14:44:12;15.50;99.90
55693;DHT22;41590;53.366;5.212;2022-10-16T14:46:41;15.60;99.90
55693;DHT22;41590;53.366;5.212;2022-10-16T14:51:39;15.80;99.90
55693;DHT22;41590;53.366;5.212;2022-10-16T14:54:12;15.40;99.90
55693;DHT22;41590;53.366;5.212;2022-10-16T14:56:53;15.30;99.90
55693;DHT22;41590;53.366;5.212;2022-10-16T15:01:51;15.10;99.90
55693;DHT22;41590;53.366;5.212;2022-10-16T15:04:18;14.90;99.90
55693;DHT22;41590;53.366;5.212;2022-10-16T15:06:44;14.80;99.90
55693;DHT22;41590;53.366;5.212;2022-10-16T15:09:10;14.70;99.90
55693;DHT22;41590;53.366;5.212;2022-10-16T15:11:38;14.60;99.90
55693;DHT22;41590;53.366;5.212;2022-10-16T15:14:04;14.60;99.90
55693;DHT22;41590;53.366;5.212;2022-10-16T15:16:32;14.50;99.90
55693;DHT22;41590;53.366;5.212;2022-10-16T15:19:27;14.50;99.90
55693;DHT22;41590;53.366;5.212;2022-10-16T15:21:57;14.40;99.90
55693;DHT22;41590;53.366;5.212;2022-10-16T15:24:23;14.30;99.90
55693;DHT22;41590;53.366;5.212;2022-10-16T15:26:51;14.30;99.90
55693;DHT22;41590;53.366;5.212;2022-10-16T15:29:25;14.40;99.90
55693;DHT22;41590;53.366;5.212;2022-10-16T15:35:13;14.20;99.90
55693;DHT22;41590;53.366;5.212;2022-10-16T15:38:05;14.10;99.90
55693;DHT22;41590;53.366;5.212;2022-10-16T15:40:34;14.10;99.90
55693;DHT22;41590;53.366;5.212;2022-10-16T15:43:00;14.10;99.90
55693;DHT22;41590;53.366;5.212;2022-10-16T15:45:26;14.00;99.90
55693;DHT22;41590;53.366;5.212;2022-10-16T15:47:58;14.00;99.90
55693;DHT22;41590;53.366;5.212;2022-10-16T15:50:26;13.90;99.90
55693;DHT22;41590;53.366;5.212;2022-10-16T15:52:52;13.80;99.90
55693;DHT22;41590;53.366;5.212;2022-10-16T15:55:18;13.80;99.90
55693;DHT22;41590;53.366;5.212;2022-10-16T15:57:45;13.80;99.90
55693;DHT22;41590;53.366;5.212;2022-10-16T16:00:16;13.80;99.90
55693;DHT22;41590;53.366;5.212;2022-10-16T16:02:50;13.80;99.90
55693;DHT22;41590;53.366;5.212;2022-10-16T16:05:16;13.70;99.90
55693;DHT22;41590;53.366;5.212;2022-10-16T16:07:42;13.70;99.90
55693;DHT22;41590;53.366;5.212;2022-10-16T16:10:10;13.60;99.90
55693;DHT22;41590;53.366;5.212;2022-10-16T16:12:38;13.50;99.90
55693;DHT22;41590;53.366;5.212;2022-10-16T16:15:05;13.50;99.90
55693;DHT22;41590;53.366;5.212;2022-10-16T16:17:33;13.40;99.90
55693;DHT22;41590;53.366;5.212;2022-10-16T16:19:59;13.40;99.90
55693;DHT22;41590;53.366;5.212;2022-10-16T16:22:25;13.30;99.90
55693;DHT22;41590;53.366;5.212;2022-10-16T16:24:51;13.20;99.90
55693;DHT22;41590;53.366;5.212;2022-10-16T16:27:18;13.10;99.90
55693;DHT22;41590;53.366;5.212;2022-10-16T16:29:52;13.10;99.90
55693;DHT22;41590;53.366;5.212;2022-10-16T16:32:25;13.00;99.90
55693;DHT22;41590;53.366;5.212;2022-10-16T16:34:52;13.00;99.90
55693;DHT22;41590;53.366;5.212;2022-10-16T16:37:22;12.90;99.90
55693;DHT22;41590;53.366;5.212;2022-10-16T16:39:59;12.80;99.90
55693;DHT22;41590;53.366;5.212;2022-10-16T16:42:41;12.80;99.90
55693;DHT22;41590;53.366;5.212;2022-10-16T16:45:09;12.70;99.90
55693;DHT22;41590;53.366;5.212;2022-10-16T16:48:00;12.70;99.90
55693;DHT22;41590;53.366;5.212;2022-10-16T16:50:27;12.60;99.90
55693;DHT22;41590;53.366;5.212;2022-10-16T16:52:54;12.50;99.90
55693;DHT22;41590;53.366;5.212;2022-10-16T16:57:52;12.40;99.90
55693;DHT22;41590;53.366;5.212;2022-10-16T17:00:20;12.30;99.90
55693;DHT22;41590;53.366;5.212;2022-10-16T17:02:49;12.30;99.90
55693;DHT22;41590;53.366;5.212;2022-10-16T17:05:21;12.20;99.90
55693;DHT22;41590;53.366;5.212;2022-10-16T17:07:46;12.20;99.90
55693;DHT22;41590;53.366;5.212;2022-10-16T17:10:13;12.10;99.90
55693;DHT22;41590;53.366;5.212;2022-10-16T17:12:43;12.10;99.90
55693;DHT22;41590;53.366;5.212;2022-10-16T17:15:09;12.10;99.90
55693;DHT22;41590;53.366;5.212;2022-10-16T17:17:36;12.00;99.90
55693;DHT22;41590;53.366;5.212;2022-10-16T17:20:09;11.90;99.90
55693;DHT22;41590;53.366;5.212;2022-10-16T17:22:37;11.90;99.90
55693;DHT22;41590;53.366;5.212;2022-10-16T17:25:04;11.80;99.90
55693;DHT22;41590;53.366;5.212;2022-10-16T17:27:40;11.70;99.90
55693;DHT22;41590;53.366;5.212;2022-10-16T17:30:19;11.70;99.90
55693;DHT22;41590;53.366;5.212;2022-10-16T17:32:50;11.70;99.90
55693;DHT22;41590;53.366;5.212;2022-10-16T17:35:17;11.60;99.90
55693;DHT22;41590;53.366;5.212;2022-10-16T17:37:47;11.60;99.90
55693;DHT22;41590;53.366;5.212;2022-10-16T17:40:14;11.70;99.90
55693;DHT22;41590;53.366;5.212;2022-10-16T17:42:45;11.70;99.90
55693;DHT22;41590;53.366;5.212;2022-10-16T17:45:10;11.80;99.90
55693;DHT22;41590;53.366;5.212;2022-10-16T17:47:38;11.80;99.90
55693;DHT22;41590;53.366;5.212;2022-10-16T17:50:07;12.00;99.90
55693;DHT22;41590;53.366;5.212;2022-10-16T17:52:33;12.20;99.90
55693;DHT22;41590;53.366;5.212;2022-10-16T17:54:59;12.10;99.90
55693;DHT22;41590;53.366;5.212;2022-10-16T17:57:26;12.30;99.90
55693;DHT22;41590;53.366;5.212;2022-10-16T17:59:55;12.30;99.90
55693;DHT22;41590;53.366;5.212;2022-10-16T18:02:22;12.40;99.90
55693;DHT22;41590;53.366;5.212;2022-10-16T18:04:49;12.30;99.90
55693;DHT22;41590;53.366;5.212;2022-10-16T18:07:16;12.60;99.90
55693;DHT22;41590;53.366;5.212;2022-10-16T18:09:42;12.50;99.90
55693;DHT22;41590;53.366;5.212;2022-10-16T18:12:09;12.60;99.90
55693;DHT22;41590;53.366;5.212;2022-10-16T18:14:35;12.60;99.90
55693;DHT22;41590;53.366;5.212;2022-10-16T18:17:03;12.60;99.90
55693;DHT22;41590;53.366;5.212;2022-10-16T18:19:33;12.70;99.90
55693;DHT22;41590;53.366;5.212;2022-10-16T18:22:00;12.60;99.90
55693;DHT22;41590;53.366;5.212;2022-10-16T18:24:26;12.60;99.90
55693;DHT22;41590;53.366;5.212;2022-10-16T18:26:53;12.60;99.90
55693;DHT22;41590;53.366;5.212;2022-10-16T18:29:24;12.60;99.90
55693;DHT22;41590;53.366;5.212;2022-10-16T18:31:52;12.80;99.90